Time;durP1;ratioP1;P1;durP2;ratioP2;P2;SDS_P1;SDS_P2;PMS_P1;PMS_P2;Temp;Humidity;BMP_temperature;BMP_pressure;BME280_temperature;BME280_humidity;BME280_pressure;Samples;Min_cycle;Max_cycle;Signal;HPM_P1;HPM_P2
2022/11/06 00:00:46;;;;;;;21.43;11.23;;;6.70;99.90;;;;;;5087061;28;20462;-68
2022/11/06 00:03:13;;;;;;;22.07;11.57;;;6.50;99.90;;;;;;5087488;28;20552;-68
2022/11/06 00:08:28;;;;;;;24.10;11.03;;;6.40;99.90;;;;;;5087550;28;20562;-69
2022/11/06 00:10:55;;;;;;;22.23;10.27;;;6.30;99.90;;;;;;5085443;28;20451;-69
2022/11/06 00:13:21;;;;;;;22.87;11.47;;;6.30;99.90;;;;;;5087368;28;20877;-69
2022/11/06 00:15:49;;;;;;;20.60;10.57;;;6.30;99.90;;;;;;5087432;28;20456;-68
2022/11/06 00:18:16;;;;;;;20.70;10.67;;;6.30;99.90;;;;;;5086954;28;20444;-69
2022/11/06 00:20:43;;;;;;;20.80;11.03;;;6.30;99.90;;;;;;5084679;28;20449;-69
2022/11/06 00:23:10;;;;;;;22.40;11.07;;;6.30;99.90;;;;;;5086797;28;20474;-68
2022/11/06 00:25:40;;;;;;;20.40;10.30;;;6.30;99.90;;;;;;5086403;28;20451;-68
2022/11/06 00:28:07;;;;;;;18.00;9.63;;;6.30;99.90;;;;;;5087022;28;20483;-68
2022/11/06 00:30:33;;;;;;;16.37;9.80;;;6.30;99.90;;;;;;5087457;28;20447;-69
2022/11/06 00:33:01;;;;;;;17.00;10.50;;;6.20;99.90;;;;;;5087399;28;20471;-68
2022/11/06 00:35:28;;;;;;;16.80;10.37;;;6.10;99.90;;;;;;5087231;28;20459;-69
2022/11/06 00:37:55;;;;;;;21.63;11.10;;;6.10;99.90;;;;;;5087251;28;20951;-68
2022/11/06 00:40:22;;;;;;;20.23;10.70;;;6.00;99.90;;;;;;5087080;28;20544;-69
2022/11/06 00:42:53;;;;;;;21.63;10.20;;;6.00;99.90;;;;;;5087025;28;20465;-69
2022/11/06 00:45:20;;;;;;;20.93;10.77;;;6.00;99.90;;;;;;5090067;28;20449;-69
2022/11/06 00:47:47;;;;;;;18.27;10.83;;;5.90;99.90;;;;;;5091221;28;20830;-69
2022/11/06 00:50:16;;;;;;;22.43;10.40;;;5.90;99.90;;;;;;5094261;28;20456;-69
2022/11/06 00:52:43;;;;;;;16.10;10.47;;;5.80;99.90;;;;;;5107625;28;20471;-69
2022/11/06 00:55:10;;;;;;;19.00;11.00;;;5.80;99.90;;;;;;5094964;28;20968;-69
2022/11/06 00:57:37;;;;;;;19.77;11.10;;;5.70;99.90;;;;;;5095086;28;20516;-69
2022/11/06 01:00:04;;;;;;;24.73;11.00;;;5.70;99.90;;;;;;5095002;28;20468;-69
2022/11/06 01:02:31;;;;;;;28.07;11.37;;;5.70;99.90;;;;;;5095060;28;20467;-69
2022/11/06 01:04:57;;;;;;;18.97;11.40;;;5.60;99.90;;;;;;5095246;28;20448;-69
2022/11/06 01:07:26;;;;;;;19.83;10.40;;;5.50;99.90;;;;;;5095109;28;20459;-69
2022/11/06 01:09:52;;;;;;;21.73;10.57;;;5.50;99.90;;;;;;5095260;28;20859;-69
2022/11/06 01:12:19;;;;;;;20.40;11.73;;;5.50;99.90;;;;;;5094575;28;20615;-69
2022/11/06 01:14:45;;;;;;;20.00;10.77;;;5.50;99.90;;;;;;5094522;28;20459;-69
2022/11/06 01:17:13;;;;;;;19.27;12.50;;;5.50;99.90;;;;;;5094882;28;20458;-69
2022/11/06 01:19:40;;;;;;;21.93;12.10;;;5.50;99.90;;;;;;5095141;28;20447;-69
2022/11/06 01:22:06;;;;;;;26.13;12.63;;;5.50;99.90;;;;;;5093988;28;20504;-69
2022/11/06 01:24:34;;;;;;;34.83;13.70;;;5.50;99.90;;;;;;5094832;28;20984;-69
2022/11/06 01:27:01;;;;;;;33.60;13.80;;;5.50;99.90;;;;;;5094268;28;20457;-69
2022/11/06 01:29:28;;;;;;;29.20;14.20;;;5.40;99.90;;;;;;5094249;28;20479;-69
2022/11/06 01:31:54;;;;;;;25.17;14.63;;;5.50;99.90;;;;;;5094481;28;20457;-69
2022/11/06 01:34:21;;;;;;;41.17;16.37;;;5.40;99.90;;;;;;5094765;28;20452;-69
2022/11/06 01:36:48;;;;;;;28.97;16.53;;;5.40;99.90;;;;;;5104751;28;20454;-69
2022/11/06 01:39:15;;;;;;;34.30;16.40;;;5.40;99.90;;;;;;5115226;27;20854;-69
2022/11/06 01:41:45;;;;;;;31.87;16.27;;;5.40;99.90;;;;;;5114175;28;20457;-69
2022/11/06 01:44:49;;;;;;;32.13;16.50;;;5.40;99.90;;;;;;5107750;28;20455;-69
2022/11/06 01:47:21;;;;;;;30.53;16.30;;;5.40;99.90;;;;;;5095231;28;20455;-69
2022/11/06 01:49:49;;;;;;;31.67;18.20;;;5.40;99.90;;;;;;5094282;28;20525;-69
2022/11/06 01:52:16;;;;;;;35.93;16.57;;;5.40;99.90;;;;;;5093758;28;20476;-69
2022/11/06 01:54:46;;;;;;;33.37;17.83;;;5.40;99.90;;;;;;5093993;28;20463;-69
2022/11/06 01:57:15;;;;;;;28.87;15.83;;;5.40;99.90;;;;;;5094182;28;20464;-69
2022/11/06 01:59:44;;;;;;;38.13;16.67;;;5.40;99.90;;;;;;5093763;28;20451;-69
2022/11/06 02:02:11;;;;;;;29.03;17.60;;;5.40;99.90;;;;;;5092799;28;20478;-69
2022/11/06 02:04:41;;;;;;;30.63;17.30;;;5.40;99.90;;;;;;5093863;28;20450;-69
2022/11/06 02:07:08;;;;;;;28.90;17.27;;;5.40;99.90;;;;;;5094023;28;20456;-69
2022/11/06 02:09:35;;;;;;;40.50;19.47;;;5.40;99.90;;;;;;5094884;28;20509;-69
2022/11/06 02:12:13;;;;;;;33.30;17.10;;;5.40;99.90;;;;;;5093358;28;20471;-69
2022/11/06 02:14:57;;;;;;;37.07;17.50;;;5.30;99.90;;;;;;5097364;28;20453;-69
2022/11/06 02:17:39;;;;;;;29.20;16.37;;;5.30;99.90;;;;;;5093437;28;20447;-69
2022/11/06 02:20:14;;;;;;;37.13;18.43;;;5.20;99.90;;;;;;5092722;28;20447;-69
2022/11/06 02:23:21;;;;;;;42.93;19.50;;;5.20;99.90;;;;;;5092964;28;20481;-69
2022/11/06 02:25:52;;;;;;;49.83;21.47;;;5.20;99.90;;;;;;5093793;28;20445;-69
2022/11/06 02:28:26;;;;;;;43.17;21.93;;;5.20;99.90;;;;;;5093215;28;20465;-69
2022/11/06 02:30:56;;;;;;;41.93;21.43;;;5.20;99.90;;;;;;5093313;28;20471;-68
2022/11/06 02:33:29;;;;;;;43.07;21.23;;;5.20;99.90;;;;;;5093187;28;20475;-69
2022/11/06 02:36:01;;;;;;;38.70;20.90;;;5.20;99.90;;;;;;5093254;28;20457;-69
2022/11/06 02:38:31;;;;;;;41.20;22.27;;;5.20;99.90;;;;;;5094331;28;20468;-68
2022/11/06 02:41:02;;;;;;;44.30;22.37;;;5.20;99.90;;;;;;5089869;28;20538;-69
2022/11/06 02:43:32;;;;;;;36.60;21.93;;;5.10;99.90;;;;;;5092682;28;20481;-69
2022/11/06 02:46:05;;;;;;;35.80;21.10;;;5.10;99.90;;;;;;5093127;28;20892;-69
2022/11/06 02:48:39;;;;;;;42.60;21.57;;;5.10;99.90;;;;;;5092826;28;20455;-69
2022/11/06 02:51:08;;;;;;;43.23;21.40;;;5.10;99.90;;;;;;5077332;28;20897;-69
2022/11/06 02:53:37;;;;;;;40.73;21.30;;;5.10;99.90;;;;;;5092963;28;20475;-69
2022/11/06 02:56:07;;;;;;;54.93;22.13;;;5.10;99.90;;;;;;5093100;28;20493;-69
2022/11/06 02:58:39;;;;;;;45.83;21.53;;;5.10;99.90;;;;;;5092322;28;20975;-68
2022/11/06 03:01:15;;;;;;;43.30;21.00;;;5.10;99.90;;;;;;5096649;28;20484;-69
2022/11/06 03:03:50;;;;;;;49.53;22.47;;;5.10;99.90;;;;;;5113049;28;20474;-69
2022/11/06 03:06:26;;;;;;;39.83;20.47;;;5.10;99.90;;;;;;5095932;28;20455;-69
2022/11/06 03:08:56;;;;;;;45.43;22.27;;;5.10;99.90;;;;;;5100979;28;20489;-69
2022/11/06 03:11:25;;;;;;;46.87;23.03;;;5.00;99.90;;;;;;5098728;28;20449;-69
2022/11/06 03:13:58;;;;;;;55.10;20.27;;;5.00;99.90;;;;;;5112067;28;20477;-68
2022/11/06 03:16:34;;;;;;;41.23;20.70;;;5.00;99.90;;;;;;5113294;28;20447;-69
2022/11/06 03:19:06;;;;;;;42.00;21.80;;;5.00;99.90;;;;;;5112511;28;20446;-69
2022/11/06 03:21:42;;;;;;;40.63;19.87;;;4.90;99.90;;;;;;5091381;28;20799;-69
2022/11/06 03:24:16;;;;;;;40.13;19.43;;;4.90;99.90;;;;;;5092633;28;20875;-69
2022/11/06 03:26:47;;;;;;;41.57;19.30;;;4.90;99.90;;;;;;5092508;28;20454;-69
2022/11/06 03:29:20;;;;;;;38.33;19.90;;;4.90;99.90;;;;;;5092153;28;20993;-69
2022/11/06 03:31:51;;;;;;;46.57;20.23;;;4.80;99.90;;;;;;5090993;28;20534;-69
2022/11/06 03:34:27;;;;;;;45.87;19.70;;;4.80;99.90;;;;;;5092336;28;20845;-69
2022/11/06 03:37:01;;;;;;;36.23;18.77;;;4.80;99.90;;;;;;5092156;28;20455;-69
2022/11/06 03:39:32;;;;;;;40.43;17.83;;;4.70;99.90;;;;;;5099746;28;20450;-69
2022/11/06 03:42:04;;;;;;;31.33;17.63;;;4.80;99.90;;;;;;5100642;28;20467;-69
2022/11/06 03:44:36;;;;;;;39.83;18.40;;;4.80;99.90;;;;;;5091679;28;20446;-69
2022/11/06 03:47:08;;;;;;;33.10;17.77;;;4.80;99.90;;;;;;5098926;28;20458;-69
2022/11/06 03:49:41;;;;;;;37.90;18.43;;;4.80;99.90;;;;;;5112076;28;20474;-69
2022/11/06 03:52:11;;;;;;;36.83;16.97;;;4.80;99.90;;;;;;5112003;28;20478;-69
2022/11/06 03:54:41;;;;;;;33.60;17.23;;;4.80;99.90;;;;;;5112347;28;20457;-69
2022/11/06 03:57:13;;;;;;;39.27;18.00;;;4.80;99.90;;;;;;5111058;28;20445;-69
2022/11/06 03:59:44;;;;;;;30.43;16.77;;;4.70;99.90;;;;;;5088517;28;20443;-69
2022/11/06 04:02:14;;;;;;;41.80;17.20;;;4.70;99.90;;;;;;5091111;28;20470;-69
2022/11/06 04:04:46;;;;;;;33.77;16.20;;;4.70;99.90;;;;;;5091982;28;20446;-69
2022/11/06 04:07:16;;;;;;;29.27;17.37;;;4.60;99.90;;;;;;5091592;28;20451;-69
2022/11/06 04:15:32;;;;;;;32.60;16.93;;;4.60;99.90;;;;;;5085442;28;20445;-69
2022/11/06 04:17:59;;;;;;;28.17;15.47;;;4.50;99.90;;;;;;5112217;28;20448;-69
2022/11/06 04:23:38;;;;;;;32.13;15.10;;;4.50;99.90;;;;;;5111988;28;20436;-69
2022/11/06 04:29:05;;;;;;;32.40;18.40;;;4.40;99.90;;;;;;5083937;28;20465;-69
2022/11/06 04:31:40;;;;;;;34.13;17.10;;;4.40;99.90;;;;;;5095396;28;20969;-69
2022/11/06 04:34:14;;;;;;;29.97;15.77;;;4.30;99.90;;;;;;5095711;28;20443;-69
2022/11/06 04:36:45;;;;;;;33.33;16.53;;;4.30;99.90;;;;;;5095730;28;21017;-69
2022/11/06 04:39:19;;;;;;;30.97;15.73;;;4.30;99.90;;;;;;5103048;28;20454;-69
2022/11/06 04:41:55;;;;;;;28.33;16.20;;;4.20;99.90;;;;;;5108534;28;20443;-70
2022/11/06 04:44:26;;;;;;;30.03;16.73;;;4.20;99.90;;;;;;5095299;28;20822;-69
2022/11/06 04:46:57;;;;;;;29.33;16.93;;;4.20;99.90;;;;;;5095818;28;20508;-69
2022/11/06 04:49:26;;;;;;;30.50;15.90;;;4.20;99.90;;;;;;5094924;28;20480;-69
2022/11/06 04:51:53;;;;;;;30.30;16.77;;;4.30;99.90;;;;;;5096001;28;20872;-69
2022/11/06 04:54:20;;;;;;;30.33;15.93;;;4.30;99.90;;;;;;5094708;28;20455;-70
2022/11/06 04:56:47;;;;;;;29.23;15.60;;;4.30;99.90;;;;;;5094712;28;20447;-69
2022/11/06 04:59:16;;;;;;;28.73;15.97;;;4.40;99.90;;;;;;5093815;28;20450;-70
2022/11/06 05:01:43;;;;;;;33.47;16.10;;;4.40;99.90;;;;;;5100538;28;20819;-69
2022/11/06 05:04:11;;;;;;;29.73;16.20;;;4.40;99.90;;;;;;5115292;28;20442;-69
2022/11/06 05:06:38;;;;;;;27.87;15.30;;;4.40;99.90;;;;;;5115614;28;20450;-69
2022/11/06 05:09:05;;;;;;;27.40;15.80;;;4.30;99.90;;;;;;5096763;28;20496;-69
2022/11/06 05:11:32;;;;;;;31.87;16.63;;;4.30;99.90;;;;;;5094711;28;20447;-69
2022/11/06 05:13:58;;;;;;;27.63;14.57;;;4.30;99.90;;;;;;5095145;28;20466;-69
2022/11/06 05:16:25;;;;;;;28.00;15.40;;;4.30;99.90;;;;;;5094802;28;20459;-69
2022/11/06 05:18:52;;;;;;;30.43;14.90;;;4.20;99.90;;;;;;5094778;28;20451;-69
2022/11/06 05:24:05;;;;;;;28.80;15.27;;;4.10;99.90;;;;;;5095908;28;20452;-69
2022/11/06 05:26:32;;;;;;;27.67;15.50;;;4.10;99.90;;;;;;5094517;28;20830;-68
2022/11/06 05:28:58;;;;;;;33.07;16.60;;;4.10;99.90;;;;;;5094507;28;20450;-69
2022/11/06 05:31:26;;;;;;;22.70;14.90;;;4.10;99.90;;;;;;5093906;28;20483;-69
2022/11/06 05:33:53;;;;;;;29.30;15.77;;;4.10;99.90;;;;;;5094743;28;20565;-68
2022/11/06 05:36:21;;;;;;;23.53;14.23;;;4.00;99.90;;;;;;5092733;28;20461;-69
2022/11/06 05:38:48;;;;;;;29.87;15.70;;;4.00;99.90;;;;;;5094546;28;20451;-68
2022/11/06 05:41:14;;;;;;;34.10;16.17;;;4.00;99.90;;;;;;5093539;28;20444;-68
2022/11/06 05:43:41;;;;;;;27.30;15.83;;;4.00;99.90;;;;;;5093701;28;20474;-69
2022/11/06 05:46:08;;;;;;;34.60;15.47;;;4.00;99.90;;;;;;5094354;28;20452;-68
2022/11/06 05:48:34;;;;;;;29.27;14.30;;;4.00;99.90;;;;;;5095517;28;20853;-68
2022/11/06 05:51:02;;;;;;;27.50;15.20;;;4.00;99.90;;;;;;5094064;28;20490;-68
2022/11/06 05:53:31;;;;;;;38.00;14.80;;;3.90;99.90;;;;;;5093858;28;20474;-68
2022/11/06 05:55:58;;;;;;;25.10;14.60;;;3.90;99.90;;;;;;5093992;28;20455;-68
2022/11/06 05:58:25;;;;;;;23.50;14.03;;;3.90;99.90;;;;;;5093478;28;20448;-68
2022/11/06 06:00:53;;;;;;;27.37;14.63;;;3.80;99.90;;;;;;5096034;28;20440;-68
2022/11/06 06:03:21;;;;;;;25.03;14.13;;;3.80;99.90;;;;;;5095336;28;20478;-68
2022/11/06 06:05:48;;;;;;;29.30;14.97;;;3.90;99.90;;;;;;5093723;28;20963;-67
2022/11/06 06:08:15;;;;;;;24.20;13.50;;;3.80;99.90;;;;;;5094018;28;20443;-68
2022/11/06 06:10:43;;;;;;;30.87;14.90;;;3.80;99.90;;;;;;5093510;28;20481;-67
2022/11/06 06:13:10;;;;;;;29.47;14.90;;;3.80;99.90;;;;;;5104800;28;21006;-68
2022/11/06 06:15:38;;;;;;;38.27;19.37;;;3.80;99.90;;;;;;5093863;28;20459;-68
2022/11/06 06:18:05;;;;;;;35.93;19.30;;;3.80;99.90;;;;;;5093508;28;20976;-68
2022/11/06 06:20:32;;;;;;;40.33;20.63;;;3.90;99.90;;;;;;5093187;28;20939;-68
2022/11/06 06:23:00;;;;;;;48.07;22.57;;;3.90;99.90;;;;;;5108586;28;20466;-68
2022/11/06 06:25:27;;;;;;;52.93;23.50;;;4.00;99.90;;;;;;5114000;28;20453;-68
2022/11/06 06:27:56;;;;;;;52.40;25.00;;;4.10;99.90;;;;;;5107049;27;20455;-68
2022/11/06 06:30:24;;;;;;;55.30;26.97;;;4.10;99.90;;;;;;5092825;28;20484;-67
2022/11/06 06:32:51;;;;;;;70.90;28.73;;;4.20;99.90;;;;;;5106342;28;20553;-68
2022/11/06 06:35:17;;;;;;;54.93;26.13;;;4.20;99.90;;;;;;5096733;28;20480;-68
2022/11/06 06:37:50;;;;;;;64.13;26.73;;;4.30;99.90;;;;;;5093455;28;20455;-68
2022/11/06 06:40:17;;;;;;;67.03;27.90;;;4.40;99.90;;;;;;5093333;28;20440;-68
2022/11/06 06:42:44;;;;;;;64.90;27.27;;;4.40;99.90;;;;;;5105262;28;20481;-67
2022/11/06 06:45:12;;;;;;;58.90;26.90;;;4.50;99.90;;;;;;5113163;28;20969;-66
2022/11/06 06:47:39;;;;;;;64.13;26.43;;;4.50;99.90;;;;;;5112947;28;20453;-66
2022/11/06 06:50:07;;;;;;;56.00;25.17;;;4.50;99.90;;;;;;5095035;28;20484;-66
2022/11/06 06:52:33;;;;;;;70.37;29.70;;;4.50;99.90;;;;;;5092686;28;20473;-67
2022/11/06 06:55:00;;;;;;;71.87;29.83;;;4.60;99.90;;;;;;5092580;28;20456;-66
2022/11/06 06:57:27;;;;;;;65.77;29.77;;;4.70;99.90;;;;;;5072329;28;20448;-67
2022/11/06 06:59:53;;;;;;;79.70;30.93;;;4.80;99.90;;;;;;5071739;28;20811;-67
2022/11/06 07:02:21;;;;;;;64.33;30.47;;;4.90;99.90;;;;;;5088600;28;20853;-66
2022/11/06 07:04:48;;;;;;;69.50;29.40;;;4.90;99.90;;;;;;5098399;28;20449;-67
2022/11/06 07:07:15;;;;;;;63.53;27.00;;;5.00;99.90;;;;;;5092134;28;20451;-66
2022/11/06 07:09:41;;;;;;;74.80;32.03;;;5.00;99.90;;;;;;5092070;28;20986;-66
2022/11/06 07:12:08;;;;;;;76.43;31.00;;;5.00;99.90;;;;;;5090940;28;20551;-66
2022/11/06 07:14:35;;;;;;;67.17;30.57;;;5.00;99.90;;;;;;5092381;28;20961;-66
2022/11/06 07:17:01;;;;;;;69.97;28.40;;;5.00;99.90;;;;;;5092399;28;20794;-66
2022/11/06 07:19:29;;;;;;;73.63;29.87;;;5.10;99.90;;;;;;5091818;28;20454;-66
2022/11/06 07:21:56;;;;;;;64.53;27.63;;;5.10;99.90;;;;;;5099801;28;20448;-66
2022/11/06 07:24:23;;;;;;;71.47;28.37;;;5.10;99.90;;;;;;5112541;28;20461;-66
2022/11/06 07:26:49;;;;;;;56.73;26.83;;;5.10;99.90;;;;;;5101719;28;20454;-66
2022/11/06 07:29:16;;;;;;;59.00;27.17;;;5.10;99.90;;;;;;5091797;28;20459;-66
2022/11/06 07:31:43;;;;;;;68.10;28.60;;;5.10;99.90;;;;;;5091824;28;20890;-67
2022/11/06 07:34:09;;;;;;;62.13;27.83;;;5.10;99.90;;;;;;5093819;28;20818;-64
2022/11/06 07:36:37;;;;;;;66.83;27.60;;;5.20;99.90;;;;;;5092084;28;20500;-66
2022/11/06 07:39:04;;;;;;;66.77;29.13;;;5.20;99.90;;;;;;5091204;28;20457;-64
2022/11/06 07:41:31;;;;;;;66.57;29.33;;;5.30;99.90;;;;;;5090533;28;21022;-65
2022/11/06 07:43:57;;;;;;;57.60;28.30;;;5.30;99.90;;;;;;5091925;28;20482;-65
2022/11/06 07:46:24;;;;;;;51.33;26.10;;;5.30;99.90;;;;;;5092042;28;20457;-65
2022/11/06 07:48:51;;;;;;;56.20;24.50;;;5.30;99.90;;;;;;5092062;28;20450;-65
2022/11/06 07:51:17;;;;;;;53.03;23.40;;;5.30;99.90;;;;;;5091213;28;20481;-66
2022/11/06 07:53:45;;;;;;;47.90;22.50;;;5.30;99.90;;;;;;5109159;28;20469;-66
2022/11/06 07:56:12;;;;;;;51.93;24.07;;;5.30;99.90;;;;;;5091647;28;20465;-67
2022/11/06 07:58:39;;;;;;;53.00;23.93;;;5.40;99.90;;;;;;5090899;28;20445;-65
2022/11/06 08:01:06;;;;;;;54.23;25.63;;;5.40;99.90;;;;;;5090607;28;20448;-66
2022/11/06 08:03:33;;;;;;;60.67;27.93;;;5.50;99.90;;;;;;5091850;28;20478;-66
2022/11/06 08:06:03;;;;;;;52.00;26.00;;;5.70;99.90;;;;;;5090951;28;20504;-66
2022/11/06 08:08:30;;;;;;;56.00;27.35;;;6.20;99.90;;;;;;5090819;28;20429;-67
2022/11/06 08:11:01;;;;;;;48.47;24.90;;;6.60;99.90;;;;;;5090851;28;20851;-66
2022/11/06 08:13:28;;;;;;;52.50;25.50;;;7.10;99.90;;;;;;5089012;28;20826;-66
2022/11/06 08:15:55;;;;;;;44.90;22.50;;;7.20;99.90;;;;;;5093092;28;20455;-66
2022/11/06 08:18:21;;;;;;;45.90;22.10;;;7.30;99.90;;;;;;5082103;28;20449;-66
2022/11/06 08:20:48;;;;;;;43.40;21.50;;;7.40;99.90;;;;;;5079993;28;20451;-67
2022/11/06 08:23:14;;;;;;;38.07;20.90;;;7.50;99.90;;;;;;5088587;28;20856;-67
2022/11/06 08:25:41;;;;;;;38.53;21.17;;;7.70;99.90;;;;;;5091068;28;20905;-66
2022/11/06 08:28:10;;;;;;;39.87;21.10;;;7.70;99.90;;;;;;5092215;28;20458;-66
2022/11/06 08:30:37;;;;;;;35.60;20.03;;;7.80;99.90;;;;;;5089978;28;20513;-67
2022/11/06 08:33:06;;;;;;;38.27;19.57;;;7.90;99.90;;;;;;5091295;28;20482;-66
2022/11/06 08:35:34;;;;;;;42.17;21.17;;;8.10;99.90;;;;;;5091139;28;20450;-66
2022/11/06 08:38:01;;;;;;;39.43;20.40;;;8.20;99.90;;;;;;5091167;28;20451;-67
2022/11/06 08:40:27;;;;;;;39.23;19.30;;;8.40;99.90;;;;;;5089228;28;20545;-66
2022/11/06 08:42:58;;;;;;;37.20;20.07;;;8.60;99.90;;;;;;5093095;28;20458;-67
2022/11/06 08:45:26;;;;;;;33.95;20.15;;;8.70;99.90;;;;;;5089789;28;20440;-74
2022/11/06 08:47:53;;;;;;;37.73;18.87;;;8.80;99.90;;;;;;5089039;28;20208;-73
2022/11/06 08:50:20;;;;;;;37.20;19.70;;;8.50;99.90;;;;;;5090982;28;20479;-74
2022/11/06 08:52:47;;;;;;;41.90;19.23;;;8.30;99.90;;;;;;5091345;28;20465;-73
2022/11/06 08:55:13;;;;;;;37.03;18.57;;;8.10;99.90;;;;;;5090470;28;20462;-74
2022/11/06 08:57:40;;;;;;;35.07;19.23;;;7.90;99.90;;;;;;5090753;28;20827;-67
2022/11/06 09:00:07;;;;;;;39.07;19.73;;;7.70;99.90;;;;;;5090312;28;20822;-67
2022/11/06 09:02:35;;;;;;;34.13;18.27;;;7.40;99.90;;;;;;5089933;28;20474;-67
2022/11/06 09:05:02;;;;;;;38.20;20.33;;;7.30;99.90;;;;;;5090528;28;20447;-66
2022/11/06 09:07:29;;;;;;;37.20;19.53;;;7.30;99.90;;;;;;5102388;28;20454;-67
2022/11/06 09:09:55;;;;;;;38.53;20.17;;;7.40;99.90;;;;;;5097094;28;20469;-66
2022/11/06 09:12:22;;;;;;;42.77;19.63;;;7.80;99.90;;;;;;5098939;28;20543;-66
2022/11/06 09:14:49;;;;;;;41.87;18.60;;;8.10;99.90;;;;;;5103647;28;20493;-66
2022/11/06 09:17:16;;;;;;;33.30;18.17;;;8.40;99.90;;;;;;5094831;28;20448;-66
2022/11/06 09:19:44;;;;;;;29.37;17.67;;;8.70;99.90;;;;;;5094195;28;20870;-66
2022/11/06 09:22:10;;;;;;;29.80;17.07;;;8.90;99.90;;;;;;5096116;28;20819;-66
2022/11/06 09:24:37;;;;;;;30.80;18.17;;;9.00;99.90;;;;;;5111277;28;20453;-66
2022/11/06 09:27:04;;;;;;;32.00;17.27;;;9.10;99.90;;;;;;5094282;28;20453;-66
2022/11/06 09:29:30;;;;;;;34.40;15.97;;;9.10;99.90;;;;;;5094075;28;20458;-66
2022/11/06 09:31:57;;;;;;;26.47;15.93;;;9.00;99.90;;;;;;5094148;28;20487;-66
2022/11/06 09:34:24;;;;;;;31.03;16.10;;;9.20;99.90;;;;;;5093277;28;20508;-66
2022/11/06 09:36:52;;;;;;;27.07;16.53;;;9.30;99.90;;;;;;5093238;28;20458;-66
2022/11/06 09:39:18;;;;;;;30.33;15.67;;;9.40;99.90;;;;;;5094075;28;20449;-66
2022/11/06 09:41:53;;;;;;;24.97;13.53;;;9.40;99.90;;;;;;5093260;28;20867;-66
2022/11/06 09:44:37;;;;;;;22.37;14.50;;;9.40;99.90;;;;;;5074089;28;20458;-66
2022/11/06 09:47:09;;;;;;;27.70;14.87;;;9.50;99.90;;;;;;5086176;28;20455;-67
2022/11/06 09:49:39;;;;;;;22.70;12.80;;;9.70;99.90;;;;;;5093681;28;20454;-66
2022/11/06 09:52:13;;;;;;;18.50;11.00;;;10.00;99.90;;;;;;5093551;28;20966;-69
2022/11/06 09:54:44;;;;;;;16.80;10.47;;;10.20;99.90;;;;;;5093335;28;20463;-68
2022/11/06 09:57:17;;;;;;;19.13;10.90;;;10.30;99.90;;;;;;5093424;28;20447;-68
2022/11/06 09:59:46;;;;;;;26.20;11.33;;;10.40;99.90;;;;;;5093130;28;20451;-68
2022/11/06 10:02:24;;;;;;;15.77;9.83;;;10.60;99.90;;;;;;5092532;28;20477;-66
2022/11/06 10:05:00;;;;;;;17.90;9.70;;;10.70;99.90;;;;;;5093896;28;20451;-67
2022/11/06 10:07:31;;;;;;;27.13;14.80;;;10.70;99.90;;;;;;5093273;28;20453;-67
2022/11/06 10:09:59;;;;;;;18.20;11.50;;;10.70;99.90;;;;;;5093087;28;20451;-67
2022/11/06 10:12:34;;;;;;;21.07;12.10;;;10.50;99.90;;;;;;5093128;28;20494;-66
2022/11/06 10:15:08;;;;;;;17.90;11.80;;;10.40;99.90;;;;;;5093951;28;20454;-67
2022/11/06 10:17:45;;;;;;;19.83;12.83;;;10.30;99.90;;;;;;5073499;28;20451;-69
2022/11/06 10:20:18;;;;;;;23.87;12.20;;;10.30;99.90;;;;;;5089445;28;20451;-66
2022/11/06 10:22:57;;;;;;;17.40;12.00;;;10.30;99.90;;;;;;5098685;28;20477;-65
2022/11/06 10:25:30;;;;;;;17.90;10.90;;;10.30;99.90;;;;;;5093482;28;20443;-66
2022/11/06 10:28:02;;;;;;;23.03;12.00;;;10.40;99.90;;;;;;5091517;28;20452;-66
2022/11/06 10:30:37;;;;;;;22.90;13.17;;;10.50;99.90;;;;;;5092219;28;20939;-66
2022/11/06 10:33:26;;;;;;;25.37;14.20;;;10.50;99.90;;;;;;5102042;28;20515;-66
2022/11/06 10:35:59;;;;;;;24.17;12.30;;;10.60;99.90;;;;;;5092358;28;20466;-67
2022/11/06 10:38:32;;;;;;;19.47;12.60;;;10.50;99.90;;;;;;5105364;28;21009;-66
2022/11/06 10:41:01;;;;;;;18.30;12.20;;;10.60;99.90;;;;;;5094195;28;20448;-66
2022/11/06 10:43:34;;;;;;;22.23;13.17;;;10.70;99.90;;;;;;5100059;28;20475;-67
2022/11/06 10:46:12;;;;;;;20.10;12.70;;;10.70;99.90;;;;;;5093112;28;20460;-67
2022/11/06 10:48:43;;;;;;;19.03;12.90;;;11.00;99.90;;;;;;5092252;28;20447;-68
2022/11/06 10:51:22;;;;;;;22.75;13.70;;;11.00;99.90;;;;;;5091108;28;20842;-67
2022/11/06 10:54:03;;;;;;;21.27;13.00;;;11.00;99.90;;;;;;5107647;28;20282;-67
2022/11/06 10:56:42;;;;;;;21.50;12.13;;;10.80;99.90;;;;;;5097569;28;20493;-69
2022/11/06 10:59:09;;;;;;;19.10;11.03;;;10.80;99.90;;;;;;5092451;28;20450;-67
2022/11/06 11:01:37;;;;;;;21.52;11.70;;;11.00;99.90;;;;;;5096123;28;20428;-69
2022/11/06 11:04:04;;;;;;;18.20;10.77;;;10.90;99.90;;;;;;5108518;28;20261;-68
2022/11/06 11:06:31;;;;;;;22.43;12.00;;;10.90;99.90;;;;;;5103330;28;21004;-67
2022/11/06 11:09:00;;;;;;;18.70;11.40;;;10.80;99.90;;;;;;5092003;28;20886;-66
2022/11/06 11:11:28;;;;;;;22.23;11.70;;;10.80;99.90;;;;;;5092823;28;20525;-66
2022/11/06 11:14:22;;;;;;;21.90;11.27;;;10.90;99.90;;;;;;5112198;28;20474;-67
2022/11/06 11:16:49;;;;;;;18.70;11.20;;;10.90;99.90;;;;;;5105347;28;20531;-65
2022/11/06 11:19:34;;;;;;;17.77;11.73;;;10.80;99.90;;;;;;5092566;28;20451;-67
2022/11/06 11:22:03;;;;;;;24.73;11.20;;;10.90;99.90;;;;;;5091305;28;20550;-66
2022/11/06 11:24:32;;;;;;;15.80;10.57;;;11.00;99.90;;;;;;5091715;28;20958;-66
2022/11/06 11:27:01;;;;;;;18.33;10.60;;;11.00;99.90;;;;;;5092245;28;20935;-67
2022/11/06 11:29:31;;;;;;;14.30;10.57;;;11.20;99.90;;;;;;5092771;28;20456;-68
2022/11/06 11:32:01;;;;;;;15.40;10.17;;;11.10;99.90;;;;;;5091440;28;20487;-67
2022/11/06 11:34:29;;;;;;;20.10;10.80;;;11.10;99.90;;;;;;5091262;28;20447;-68
2022/11/06 11:36:59;;;;;;;17.37;9.97;;;11.10;99.90;;;;;;5087499;28;20466;-70
2022/11/06 11:39:31;;;;;;;19.33;9.37;;;11.20;99.90;;;;;;5087813;28;20521;-70
2022/11/06 11:42:24;;;;;;;19.27;9.83;;;11.20;99.90;;;;;;5087793;28;21108;-69
2022/11/06 11:45:16;;;;;;;14.73;9.20;;;11.20;99.90;;;;;;5088715;28;20447;-67
2022/11/06 11:47:45;;;;;;;16.67;9.93;;;11.30;99.90;;;;;;5091488;28;20455;-68
2022/11/06 11:50:27;;;;;;;11.17;7.63;;;11.30;99.90;;;;;;5088809;28;20456;-71
2022/11/06 11:52:58;;;;;;;15.50;8.57;;;11.40;99.90;;;;;;5089935;28;20483;-68
2022/11/06 11:55:28;;;;;;;11.50;8.00;;;11.10;99.90;;;;;;5089649;28;20466;-68
2022/11/06 11:57:58;;;;;;;14.00;8.07;;;10.90;99.90;;;;;;5088746;28;20447;-68
2022/11/06 12:00:25;;;;;;;11.93;6.97;;;10.70;99.90;;;;;;5089573;28;20459;-68
2022/11/06 12:02:55;;;;;;;11.50;7.70;;;10.50;99.90;;;;;;5094607;28;20471;-67
2022/11/06 12:05:24;;;;;;;11.32;7.10;;;10.30;99.90;;;;;;5100655;28;20858;-67
2022/11/06 12:07:53;;;;;;;10.20;6.90;;;10.20;99.90;;;;;;5091599;28;20700;-67
2022/11/06 12:10:29;;;;;;;8.83;6.97;;;10.10;99.90;;;;;;5090552;28;20455;-67
2022/11/06 12:12:57;;;;;;;9.27;5.83;;;10.30;99.90;;;;;;5105155;28;20485;-67
2022/11/06 12:15:27;;;;;;;16.00;6.40;;;10.40;99.90;;;;;;5106857;28;20458;-67
2022/11/06 12:17:59;;;;;;;8.20;5.30;;;10.50;99.90;;;;;;5092760;28;21656;-66
2022/11/06 12:20:39;;;;;;;11.87;6.20;;;10.30;99.90;;;;;;5094991;28;20463;-67
2022/11/06 12:23:12;;;;;;;9.37;5.60;;;10.20;99.90;;;;;;5097507;28;20462;-68
2022/11/06 12:25:43;;;;;;;10.87;6.30;;;10.10;99.90;;;;;;5108962;28;20493;-67
2022/11/06 12:28:14;;;;;;;10.47;6.27;;;10.10;99.90;;;;;;5091473;28;20519;-67
2022/11/06 12:30:43;;;;;;;9.23;6.80;;;10.00;99.90;;;;;;5090175;28;20973;-67
2022/11/06 12:33:13;;;;;;;9.70;6.40;;;9.90;99.90;;;;;;5090601;28;20487;-69
2022/11/06 12:35:46;;;;;;;13.90;7.20;;;9.80;99.90;;;;;;5090446;28;20773;-68
2022/11/06 12:38:19;;;;;;;13.77;6.33;;;9.70;99.90;;;;;;5090322;28;20811;-67
2022/11/06 12:40:51;;;;;;;8.77;6.47;;;9.60;99.90;;;;;;5091277;28;20431;-67
2022/11/06 12:43:25;;;;;;;13.47;7.77;;;9.60;99.90;;;;;;5097720;28;20471;-68
2022/11/06 12:46:15;;;;;;;13.03;6.63;;;10.00;99.90;;;;;;5113075;28;20445;-67
2022/11/06 12:49:02;;;;;;;10.40;6.33;;;10.50;99.90;;;;;;5099254;28;20455;-67
2022/11/06 12:51:36;;;;;;;11.70;6.33;;;11.00;99.90;;;;;;5093424;28;20489;-67
2022/11/06 12:54:19;;;;;;;6.80;5.20;;;11.50;99.90;;;;;;5099727;28;20515;-68
2022/11/06 12:56:55;;;;;;;11.13;5.80;;;11.60;99.90;;;;;;5094820;28;20475;-67
2022/11/06 12:59:34;;;;;;;10.17;6.43;;;11.90;99.90;;;;;;5094225;28;20505;-67
2022/11/06 13:02:19;;;;;;;5.95;4.97;;;12.10;99.90;;;;;;5093489;28;20436;-67
2022/11/06 13:04:55;;;;;;;7.17;6.00;;;12.20;99.90;;;;;;5094207;28;20201;-67
2022/11/06 13:07:46;;;;;;;7.20;5.47;;;12.10;99.90;;;;;;5091838;28;20883;-68